SAS2421 EETN-ENGM
Flight info
| Callsign | SAS2421 |
|---|---|
| Flight time | 1h 19m |
| Altitude | 38000 |
| Route | PETOT DCT RUNGA DCT ARGIB Z166 EBURI N623 ESEBA |
| Aircraft | A319/M-SDE3FGIJ1RWXY/LB1 |
Departure
| Time | 2026-05-04 12:33 |
|---|---|
| Airport | Lennart Meri Tallinn Airport (EETN) |
Arrival
| Time | 2026-05-04 13:53 |
|---|---|
| Airport | Oslo-Gardermoen International Airport (ENGM) |
| Time | Latitude | Longitude | Altitude | Speed | Heading |
|---|---|---|---|---|---|
| 2026-05-04 12:05 | 59.41588 | 24.80134 | 162 ft | 0 kts | 0° |
| 2026-05-04 12:22 | 59.41581 | 24.80134 | 162 ft | 4 kts | 0° |
| 2026-05-04 12:22 | 59.41554 | 24.80134 | 162 ft | 4 kts | 0° |
| 2026-05-04 12:22 | 59.41528 | 24.80133 | 162 ft | 4 kts | 0° |
| 2026-05-04 12:23 | 59.41501 | 24.80132 | 162 ft | 4 kts | 0° |
| 2026-05-04 12:23 | 59.41492 | 24.80132 | 162 ft | 0 kts | 0° |
| 2026-05-04 12:26 | 59.41493 | 24.80132 | 162 ft | 1 kts | 0° |
| 2026-05-04 12:26 | 59.41508 | 24.80135 | 162 ft | 4 kts | 9° |
| 2026-05-04 12:27 | 59.41528 | 24.80190 | 162 ft | 6 kts | 81° |
| 2026-05-04 12:27 | 59.41529 | 24.80299 | 162 ft | 9 kts | 90° |
| 2026-05-04 12:27 | 59.41525 | 24.80422 | 162 ft | 9 kts | 101° |
| 2026-05-04 12:27 | 59.41510 | 24.80545 | 162 ft | 10 kts | 101° |
| 2026-05-04 12:28 | 59.41507 | 24.80710 | 162 ft | 13 kts | 92° |
| 2026-05-04 12:28 | 59.41506 | 24.80904 | 162 ft | 16 kts | 90° |
| 2026-05-04 12:28 | 59.41505 | 24.81156 | 162 ft | 21 kts | 90° |
| 2026-05-04 12:28 | 59.41505 | 24.81472 | 162 ft | 25 kts | 90° |
| 2026-05-04 12:29 | 59.41504 | 24.81822 | 162 ft | 24 kts | 90° |
| 2026-05-04 12:29 | 59.41503 | 24.82120 | 162 ft | 20 kts | 90° |
| 2026-05-04 12:29 | 59.41502 | 24.82409 | 162 ft | 22 kts | 90° |
| 2026-05-04 12:29 | 59.41501 | 24.82691 | 162 ft | 18 kts | 90° |
| 2026-05-04 12:30 | 59.41501 | 24.82950 | 162 ft | 20 kts | 90° |
| 2026-05-04 12:30 | 59.41500 | 24.83246 | 162 ft | 23 kts | 90° |
| 2026-05-04 12:30 | 59.41499 | 24.83560 | 162 ft | 22 kts | 90° |
| 2026-05-04 12:30 | 59.41499 | 24.83885 | 162 ft | 25 kts | 90° |
| 2026-05-04 12:31 | 59.41498 | 24.84195 | 162 ft | 24 kts | 90° |
| 2026-05-04 12:31 | 59.41496 | 24.84508 | 162 ft | 22 kts | 90° |
| 2026-05-04 12:31 | 59.41495 | 24.84814 | 162 ft | 22 kts | 90° |
| 2026-05-04 12:31 | 59.41485 | 24.84983 | 162 ft | 12 kts | 126° |
| 2026-05-04 12:32 | 59.41429 | 24.85015 | 162 ft | 10 kts | 180° |
| 2026-05-04 12:32 | 59.41320 | 24.84913 | 162 ft | 12 kts | 268° |
| 2026-05-04 12:32 | 59.41322 | 24.84403 | 160 ft | 72 kts | 270° |
| 2026-05-04 12:33 | 59.41326 | 24.82999 | 161 ft | 132 kts | 270° |
| 2026-05-04 12:33 | 59.41318 | 24.81065 | 608 ft | 138 kts | 270° |
| 2026-05-04 12:33 | 59.41308 | 24.79197 | 1207 ft | 138 kts | 268° |
| 2026-05-04 12:33 | 59.41366 | 24.77321 | 1836 ft | 137 kts | 272° |
| 2026-05-04 12:34 | 59.41498 | 24.75481 | 2476 ft | 134 kts | 271° |
| 2026-05-04 12:34 | 59.41649 | 24.73701 | 3103 ft | 133 kts | 272° |
| 2026-05-04 12:34 | 59.41787 | 24.71860 | 3537 ft | 145 kts | 269° |
| 2026-05-04 12:34 | 59.41911 | 24.69747 | 3853 ft | 167 kts | 269° |
| 2026-05-04 12:35 | 59.42058 | 24.67320 | 4161 ft | 192 kts | 270° |
| 2026-05-04 12:35 | 59.42232 | 24.64539 | 4642 ft | 217 kts | 274° |
| 2026-05-04 12:35 | 59.42435 | 24.61435 | 5222 ft | 239 kts | 274° |
| 2026-05-04 12:35 | 59.42652 | 24.58180 | 6158 ft | 244 kts | 273° |
| 2026-05-04 12:36 | 59.42874 | 24.54866 | 7148 ft | 246 kts | 273° |
| 2026-05-04 12:36 | 59.43093 | 24.51518 | 8135 ft | 248 kts | 272° |
| 2026-05-04 12:36 | 59.43312 | 24.48126 | 9127 ft | 251 kts | 272° |
| 2026-05-04 12:36 | 59.43531 | 24.44691 | 10008 ft | 258 kts | 272° |
| 2026-05-04 12:37 | 59.43758 | 24.41017 | 10381 ft | 281 kts | 272° |
| 2026-05-04 12:37 | 59.43998 | 24.37116 | 10982 ft | 292 kts | 272° |
| 2026-05-04 12:37 | 59.44245 | 24.33133 | 11763 ft | 296 kts | 273° |
| 2026-05-04 12:37 | 59.44497 | 24.29096 | 12624 ft | 299 kts | 273° |
| 2026-05-04 12:38 | 59.44748 | 24.25062 | 13443 ft | 303 kts | 273° |
| 2026-05-04 12:38 | 59.45007 | 24.20903 | 14180 ft | 306 kts | 273° |
| 2026-05-04 12:38 | 59.45265 | 24.16723 | 14908 ft | 309 kts | 273° |
| 2026-05-04 12:38 | 59.45524 | 24.12495 | 15623 ft | 312 kts | 272° |
| 2026-05-04 12:39 | 59.45783 | 24.08240 | 16336 ft | 315 kts | 272° |
| 2026-05-04 12:39 | 59.46038 | 24.04000 | 17030 ft | 317 kts | 272° |
| 2026-05-04 12:39 | 59.46296 | 23.99668 | 17763 ft | 320 kts | 272° |
| 2026-05-04 12:39 | 59.46558 | 23.95277 | 18384 ft | 324 kts | 272° |
| 2026-05-04 12:40 | 59.46821 | 23.90842 | 19000 ft | 327 kts | 272° |
| 2026-05-04 12:40 | 59.47080 | 23.86436 | 19638 ft | 330 kts | 272° |
| 2026-05-04 12:40 | 59.47345 | 23.81936 | 20300 ft | 332 kts | 272° |
| 2026-05-04 12:40 | 59.47610 | 23.77397 | 20934 ft | 335 kts | 271° |
| 2026-05-04 12:41 | 59.47875 | 23.72799 | 21548 ft | 337 kts | 271° |
| 2026-05-04 12:41 | 59.48138 | 23.68185 | 22151 ft | 340 kts | 271° |
| 2026-05-04 12:41 | 59.48402 | 23.63539 | 22755 ft | 343 kts | 271° |
| 2026-05-04 12:41 | 59.48665 | 23.58901 | 23328 ft | 345 kts | 271° |
| 2026-05-04 12:42 | 59.48933 | 23.54179 | 23818 ft | 348 kts | 271° |
| 2026-05-04 12:42 | 59.49200 | 23.49429 | 24295 ft | 350 kts | 271° |
| 2026-05-04 12:42 | 59.49465 | 23.44704 | 24779 ft | 353 kts | 271° |
| 2026-05-04 12:42 | 59.49732 | 23.39880 | 25257 ft | 355 kts | 270° |
| 2026-05-04 12:43 | 59.49996 | 23.35035 | 25729 ft | 357 kts | 270° |
| 2026-05-04 12:43 | 59.50256 | 23.30154 | 26220 ft | 360 kts | 270° |
| 2026-05-04 12:43 | 59.50518 | 23.25212 | 26632 ft | 364 kts | 270° |
| 2026-05-04 12:43 | 59.50784 | 23.20235 | 27089 ft | 367 kts | 270° |
| 2026-05-04 12:44 | 59.51055 | 23.15221 | 27542 ft | 369 kts | 270° |
| 2026-05-04 12:44 | 59.51358 | 23.10172 | 27994 ft | 373 kts | 272° |
| 2026-05-04 12:44 | 59.51752 | 23.05092 | 28445 ft | 376 kts | 273° |
| 2026-05-04 12:44 | 59.52196 | 22.99994 | 28886 ft | 379 kts | 274° |
| 2026-05-04 12:45 | 59.52652 | 22.94923 | 29319 ft | 382 kts | 274° |
| 2026-05-04 12:45 | 59.53110 | 22.89744 | 29747 ft | 384 kts | 273° |
| 2026-05-04 12:45 | 59.53556 | 22.84544 | 30109 ft | 386 kts | 273° |
| 2026-05-04 12:45 | 59.53991 | 22.79301 | 30447 ft | 389 kts | 273° |
| 2026-05-04 12:46 | 59.54416 | 22.74023 | 30775 ft | 391 kts | 273° |
| 2026-05-04 12:46 | 59.54834 | 22.68704 | 31094 ft | 394 kts | 273° |
| 2026-05-04 12:46 | 59.55253 | 22.63349 | 31462 ft | 397 kts | 273° |
| 2026-05-04 12:46 | 59.55675 | 22.57968 | 31877 ft | 397 kts | 273° |
| 2026-05-04 12:47 | 59.56093 | 22.52658 | 32297 ft | 397 kts | 273° |
| 2026-05-04 12:47 | 59.56516 | 22.47286 | 32731 ft | 396 kts | 273° |
| 2026-05-04 12:47 | 59.56937 | 22.41918 | 33169 ft | 396 kts | 273° |
| 2026-05-04 12:47 | 59.57354 | 22.36544 | 33605 ft | 395 kts | 273° |
| 2026-05-04 12:48 | 59.57765 | 22.31174 | 33992 ft | 395 kts | 273° |
| 2026-05-04 12:48 | 59.58175 | 22.25801 | 34332 ft | 395 kts | 273° |
| 2026-05-04 12:48 | 59.58579 | 22.20497 | 34655 ft | 396 kts | 274° |
| 2026-05-04 12:48 | 59.58988 | 22.15108 | 34987 ft | 396 kts | 274° |
| 2026-05-04 12:49 | 59.59397 | 22.09706 | 35301 ft | 397 kts | 274° |
| 2026-05-04 12:49 | 59.59802 | 22.04316 | 35602 ft | 397 kts | 274° |
| 2026-05-04 12:49 | 59.60204 | 21.98898 | 35931 ft | 398 kts | 274° |
| 2026-05-04 12:49 | 59.60598 | 21.93563 | 36229 ft | 398 kts | 274° |
| 2026-05-04 12:50 | 59.60994 | 21.88137 | 36514 ft | 399 kts | 274° |
| 2026-05-04 12:50 | 59.61389 | 21.82714 | 36797 ft | 399 kts | 274° |
| 2026-05-04 12:50 | 59.61786 | 21.77260 | 37076 ft | 399 kts | 274° |
| 2026-05-04 12:50 | 59.62182 | 21.71820 | 37350 ft | 400 kts | 274° |
| 2026-05-04 12:51 | 59.62568 | 21.66445 | 37616 ft | 400 kts | 274° |
| 2026-05-04 12:51 | 59.63343 | 21.55526 | 37717 ft | 401 kts | 274° |
| 2026-05-04 12:52 | 59.63982 | 21.46426 | 37716 ft | 401 kts | 274° |
| 2026-05-04 12:52 | 59.64745 | 21.35494 | 37753 ft | 401 kts | 274° |
| 2026-05-04 12:53 | 59.65500 | 21.24538 | 37720 ft | 401 kts | 274° |
| 2026-05-04 12:53 | 59.66232 | 21.13657 | 37717 ft | 401 kts | 274° |
| 2026-05-04 12:54 | 59.66967 | 21.02699 | 37716 ft | 401 kts | 274° |
| 2026-05-04 12:54 | 59.67697 | 20.91732 | 37718 ft | 401 kts | 274° |
| 2026-05-04 12:55 | 59.68410 | 20.80830 | 37720 ft | 401 kts | 273° |
| 2026-05-04 12:55 | 59.69116 | 20.69838 | 37733 ft | 401 kts | 273° |
| 2026-05-04 12:56 | 59.69811 | 20.58942 | 37730 ft | 401 kts | 273° |
| 2026-05-04 12:56 | 59.70498 | 20.47970 | 37728 ft | 401 kts | 273° |
| 2026-05-04 12:57 | 59.71171 | 20.37000 | 37725 ft | 401 kts | 273° |
| 2026-05-04 12:57 | 59.71844 | 20.26004 | 37717 ft | 401 kts | 273° |
| 2026-05-04 12:58 | 59.72509 | 20.15056 | 37721 ft | 401 kts | 273° |
| 2026-05-04 12:58 | 59.73158 | 20.04067 | 37723 ft | 401 kts | 273° |
| 2026-05-04 12:59 | 59.73798 | 19.93053 | 37730 ft | 402 kts | 273° |
| 2026-05-04 12:59 | 59.74429 | 19.82092 | 37723 ft | 402 kts | 272° |
| 2026-05-04 13:00 | 59.75048 | 19.71043 | 37716 ft | 402 kts | 272° |
| 2026-05-04 13:00 | 59.75565 | 19.59981 | 37716 ft | 402 kts | 271° |
| 2026-05-04 13:01 | 59.76010 | 19.48971 | 37709 ft | 402 kts | 271° |
| 2026-05-04 13:01 | 59.76460 | 19.37896 | 37709 ft | 402 kts | 271° |
| 2026-05-04 13:02 | 59.76920 | 19.26820 | 37708 ft | 402 kts | 271° |
| 2026-05-04 13:02 | 59.77375 | 19.15804 | 37706 ft | 402 kts | 271° |
| 2026-05-04 13:03 | 59.77812 | 19.04694 | 37707 ft | 402 kts | 271° |
| 2026-05-04 13:03 | 59.78237 | 18.93661 | 37696 ft | 402 kts | 271° |
| 2026-05-04 13:04 | 59.78652 | 18.82563 | 37698 ft | 402 kts | 271° |
| 2026-05-04 13:04 | 59.79067 | 18.71461 | 37698 ft | 402 kts | 271° |
| 2026-05-04 13:05 | 59.79473 | 18.60436 | 37693 ft | 402 kts | 271° |
| 2026-05-04 13:05 | 59.79871 | 18.49335 | 37695 ft | 402 kts | 271° |
| 2026-05-04 13:06 | 59.80254 | 18.38241 | 37688 ft | 402 kts | 270° |
| 2026-05-04 13:06 | 59.80625 | 18.27195 | 37684 ft | 402 kts | 270° |
| 2026-05-04 13:07 | 59.80991 | 18.16093 | 37687 ft | 402 kts | 270° |
| 2026-05-04 13:07 | 59.81345 | 18.04980 | 37682 ft | 402 kts | 270° |
| 2026-05-04 13:08 | 59.81685 | 17.93933 | 37663 ft | 402 kts | 270° |
| 2026-05-04 13:08 | 59.82022 | 17.82820 | 37666 ft | 402 kts | 270° |
| 2026-05-04 13:09 | 59.82353 | 17.71689 | 37710 ft | 402 kts | 270° |
| 2026-05-04 13:09 | 59.82668 | 17.60672 | 37711 ft | 401 kts | 270° |
| 2026-05-04 13:10 | 59.82972 | 17.49572 | 37712 ft | 401 kts | 270° |
| 2026-05-04 13:10 | 59.83269 | 17.38484 | 37718 ft | 401 kts | 270° |
| 2026-05-04 13:11 | 59.83556 | 17.27462 | 37720 ft | 401 kts | 270° |
| 2026-05-04 13:11 | 59.83838 | 17.16352 | 37705 ft | 401 kts | 270° |
| 2026-05-04 13:12 | 59.84111 | 17.05252 | 37687 ft | 401 kts | 270° |
| 2026-05-04 13:12 | 59.84372 | 16.94148 | 37676 ft | 401 kts | 270° |
| 2026-05-04 13:13 | 59.84618 | 16.83137 | 37669 ft | 401 kts | 270° |
| 2026-05-04 13:13 | 59.84821 | 16.72024 | 37666 ft | 401 kts | 268° |
| 2026-05-04 13:14 | 59.84709 | 16.60935 | 37685 ft | 400 kts | 265° |
| 2026-05-04 13:14 | 59.84456 | 16.49952 | 37676 ft | 400 kts | 265° |
| 2026-05-04 13:15 | 59.84220 | 16.38899 | 37676 ft | 400 kts | 265° |
| 2026-05-04 13:15 | 59.84012 | 16.27830 | 37673 ft | 400 kts | 266° |
| 2026-05-04 13:16 | 59.83804 | 16.16776 | 37675 ft | 400 kts | 266° |
| 2026-05-04 13:16 | 59.83591 | 16.05768 | 37673 ft | 400 kts | 265° |
| 2026-05-04 13:17 | 59.83366 | 15.94707 | 37704 ft | 400 kts | 266° |
| 2026-05-04 13:17 | 59.83122 | 15.83653 | 37691 ft | 399 kts | 265° |
| 2026-05-04 13:18 | 59.82872 | 15.72690 | 37683 ft | 398 kts | 265° |
| 2026-05-04 13:18 | 59.82618 | 15.61681 | 37676 ft | 398 kts | 265° |
| 2026-05-04 13:19 | 59.82356 | 15.50757 | 37657 ft | 397 kts | 265° |
| 2026-05-04 13:19 | 59.82082 | 15.39790 | 37663 ft | 397 kts | 265° |
| 2026-05-04 13:20 | 59.81797 | 15.28825 | 37664 ft | 397 kts | 265° |
| 2026-05-04 13:20 | 59.81504 | 15.17851 | 37684 ft | 396 kts | 265° |
| 2026-05-04 13:21 | 59.81207 | 15.06993 | 37684 ft | 396 kts | 265° |
| 2026-05-04 13:21 | 59.80904 | 14.96066 | 37682 ft | 395 kts | 265° |
| 2026-05-04 13:22 | 59.80588 | 14.85164 | 37680 ft | 395 kts | 265° |
| 2026-05-04 13:22 | 59.80255 | 14.74329 | 37684 ft | 395 kts | 265° |
| 2026-05-04 13:23 | 59.80283 | 14.63408 | 37680 ft | 397 kts | 277° |
| 2026-05-04 13:23 | 59.80829 | 14.58014 | 37438 ft | 399 kts | 278° |
| 2026-05-04 13:23 | 59.81392 | 14.52579 | 36362 ft | 411 kts | 278° |
| 2026-05-04 13:23 | 59.81967 | 14.46962 | 35559 ft | 415 kts | 278° |
| 2026-05-04 13:24 | 59.82538 | 14.41325 | 35054 ft | 411 kts | 278° |
| 2026-05-04 13:24 | 59.83096 | 14.35765 | 34555 ft | 407 kts | 278° |
| 2026-05-04 13:24 | 59.83634 | 14.30363 | 34122 ft | 401 kts | 278° |
| 2026-05-04 13:25 | 59.84705 | 14.19606 | 33217 ft | 389 kts | 278° |
| 2026-05-04 13:25 | 59.85229 | 14.14341 | 32692 ft | 384 kts | 278° |
| 2026-05-04 13:25 | 59.85742 | 14.09153 | 32184 ft | 380 kts | 278° |
| 2026-05-04 13:25 | 59.86246 | 14.04031 | 31683 ft | 375 kts | 278° |
| 2026-05-04 13:26 | 59.86742 | 13.98959 | 31180 ft | 371 kts | 278° |
| 2026-05-04 13:26 | 59.87226 | 13.93999 | 30710 ft | 367 kts | 279° |
| 2026-05-04 13:26 | 59.87706 | 13.89047 | 30289 ft | 360 kts | 279° |
| 2026-05-04 13:26 | 59.88174 | 13.84186 | 29769 ft | 354 kts | 279° |
| 2026-05-04 13:27 | 59.88634 | 13.79399 | 29026 ft | 349 kts | 279° |
| 2026-05-04 13:27 | 59.89086 | 13.74672 | 28312 ft | 344 kts | 279° |
| 2026-05-04 13:27 | 59.89533 | 13.70010 | 27624 ft | 341 kts | 278° |
| 2026-05-04 13:27 | 59.89973 | 13.65396 | 26958 ft | 337 kts | 278° |
| 2026-05-04 13:28 | 59.90407 | 13.60817 | 26436 ft | 334 kts | 278° |
| 2026-05-04 13:28 | 59.90829 | 13.56350 | 26028 ft | 329 kts | 278° |
| 2026-05-04 13:28 | 59.91250 | 13.51892 | 25677 ft | 323 kts | 277° |
| 2026-05-04 13:28 | 59.91658 | 13.47540 | 25337 ft | 316 kts | 277° |
| 2026-05-04 13:29 | 59.92054 | 13.43277 | 25013 ft | 310 kts | 277° |
| 2026-05-04 13:29 | 59.92441 | 13.39083 | 24667 ft | 305 kts | 277° |
| 2026-05-04 13:29 | 59.92820 | 13.34951 | 24332 ft | 301 kts | 276° |
| 2026-05-04 13:29 | 59.93194 | 13.30877 | 24016 ft | 296 kts | 276° |
| 2026-05-04 13:30 | 59.93563 | 13.26862 | 23679 ft | 292 kts | 276° |
| 2026-05-04 13:30 | 59.93921 | 13.22950 | 23341 ft | 288 kts | 276° |
| 2026-05-04 13:30 | 59.94277 | 13.19037 | 22971 ft | 284 kts | 275° |
| 2026-05-04 13:30 | 59.94626 | 13.15194 | 22633 ft | 278 kts | 275° |
| 2026-05-04 13:31 | 59.94969 | 13.11425 | 22313 ft | 273 kts | 275° |
| 2026-05-04 13:31 | 59.95303 | 13.07734 | 21996 ft | 267 kts | 275° |
| 2026-05-04 13:31 | 59.95629 | 13.04116 | 21683 ft | 261 kts | 275° |
| 2026-05-04 13:31 | 59.95944 | 13.00583 | 21378 ft | 256 kts | 275° |
| 2026-05-04 13:32 | 59.96253 | 12.97135 | 21082 ft | 254 kts | 275° |
| 2026-05-04 13:32 | 59.96563 | 12.93662 | 20780 ft | 253 kts | 275° |
| 2026-05-04 13:32 | 59.96872 | 12.90196 | 20480 ft | 252 kts | 275° |
| 2026-05-04 13:32 | 59.97176 | 12.86758 | 20185 ft | 250 kts | 275° |
| 2026-05-04 13:33 | 59.97475 | 12.83338 | 19883 ft | 249 kts | 275° |
| 2026-05-04 13:33 | 59.97769 | 12.79985 | 19589 ft | 248 kts | 275° |
| 2026-05-04 13:33 | 59.98065 | 12.76600 | 19298 ft | 246 kts | 275° |
| 2026-05-04 13:33 | 59.98359 | 12.73225 | 18987 ft | 245 kts | 276° |
| 2026-05-04 13:34 | 59.98648 | 12.69911 | 18624 ft | 245 kts | 276° |
| 2026-05-04 13:34 | 59.98940 | 12.66564 | 18268 ft | 244 kts | 276° |
| 2026-05-04 13:34 | 59.99229 | 12.63211 | 17895 ft | 244 kts | 276° |
| 2026-05-04 13:34 | 59.99518 | 12.59868 | 17505 ft | 243 kts | 276° |
| 2026-05-04 13:35 | 59.99802 | 12.56545 | 17142 ft | 242 kts | 276° |
| 2026-05-04 13:35 | 60.00355 | 12.50009 | 16451 ft | 238 kts | 276° |
| 2026-05-04 13:35 | 60.00630 | 12.46654 | 16111 ft | 254 kts | 276° |
| 2026-05-04 13:36 | 60.00908 | 12.43103 | 15766 ft | 259 kts | 276° |
| 2026-05-04 13:36 | 60.01181 | 12.39532 | 15430 ft | 260 kts | 276° |
| 2026-05-04 13:36 | 60.01449 | 12.35951 | 15093 ft | 260 kts | 276° |
| 2026-05-04 13:36 | 60.01711 | 12.32404 | 14767 ft | 261 kts | 276° |
| 2026-05-04 13:37 | 60.01879 | 12.28814 | 14438 ft | 257 kts | 266° |
| 2026-05-04 13:37 | 60.01417 | 12.25400 | 14150 ft | 255 kts | 245° |
| 2026-05-04 13:37 | 60.00406 | 12.22502 | 13925 ft | 252 kts | 238° |
| 2026-05-04 13:37 | 59.99705 | 12.20658 | 13718 ft | 251 kts | 238° |
| 2026-05-04 13:38 | 59.98420 | 12.16812 | 13234 ft | 246 kts | 248° |
| 2026-05-04 13:38 | 59.97881 | 12.13656 | 12886 ft | 242 kts | 257° |
| 2026-05-04 13:38 | 59.97440 | 12.10382 | 12385 ft | 246 kts | 257° |
| 2026-05-04 13:38 | 59.96990 | 12.07078 | 12018 ft | 245 kts | 256° |
| 2026-05-04 13:39 | 59.96541 | 12.03788 | 11703 ft | 244 kts | 256° |
| 2026-05-04 13:39 | 59.96097 | 12.00547 | 11422 ft | 241 kts | 256° |
| 2026-05-04 13:39 | 59.95651 | 11.97320 | 11125 ft | 239 kts | 256° |
| 2026-05-04 13:39 | 59.95215 | 11.94179 | 10838 ft | 237 kts | 256° |
| 2026-05-04 13:40 | 59.94776 | 11.91012 | 10549 ft | 236 kts | 256° |
| 2026-05-04 13:40 | 59.94337 | 11.87856 | 10257 ft | 236 kts | 256° |
| 2026-05-04 13:40 | 59.93900 | 11.84715 | 10109 ft | 234 kts | 256° |
| 2026-05-04 13:40 | 59.93468 | 11.81610 | 9925 ft | 228 kts | 256° |
| 2026-05-04 13:41 | 59.93046 | 11.78585 | 9981 ft | 227 kts | 256° |
| 2026-05-04 13:41 | 59.92633 | 11.75590 | 9985 ft | 227 kts | 257° |
| 2026-05-04 13:41 | 59.92478 | 11.72450 | 9858 ft | 230 kts | 270° |
| 2026-05-04 13:42 | 59.92512 | 11.66106 | 9333 ft | 227 kts | 270° |
| 2026-05-04 13:42 | 59.92519 | 11.64030 | 9167 ft | 225 kts | 270° |
| 2026-05-04 13:42 | 59.92527 | 11.60919 | 8931 ft | 224 kts | 270° |
| 2026-05-04 13:42 | 59.92533 | 11.57800 | 8693 ft | 224 kts | 270° |
| 2026-05-04 13:43 | 59.92539 | 11.54688 | 8455 ft | 223 kts | 270° |
| 2026-05-04 13:43 | 59.92544 | 11.51612 | 8224 ft | 221 kts | 270° |
| 2026-05-04 13:43 | 59.92549 | 11.48587 | 7993 ft | 221 kts | 270° |
| 2026-05-04 13:43 | 59.92556 | 11.45517 | 7760 ft | 220 kts | 270° |
| 2026-05-04 13:44 | 59.92562 | 11.42479 | 7530 ft | 219 kts | 270° |
| 2026-05-04 13:44 | 59.92567 | 11.39447 | 7303 ft | 218 kts | 270° |
| 2026-05-04 13:44 | 59.92568 | 11.36431 | 7076 ft | 217 kts | 270° |
| 2026-05-04 13:44 | 59.92570 | 11.33426 | 6849 ft | 216 kts | 270° |
| 2026-05-04 13:45 | 59.92570 | 11.30423 | 6621 ft | 215 kts | 270° |
| 2026-05-04 13:45 | 59.92567 | 11.27447 | 6390 ft | 214 kts | 269° |
| 2026-05-04 13:45 | 59.92563 | 11.24481 | 6168 ft | 214 kts | 269° |
| 2026-05-04 13:45 | 59.92562 | 11.21557 | 5938 ft | 213 kts | 269° |
| 2026-05-04 13:46 | 59.92561 | 11.18615 | 5711 ft | 210 kts | 269° |
| 2026-05-04 13:46 | 59.92560 | 11.15728 | 5491 ft | 206 kts | 269° |
| 2026-05-04 13:46 | 59.92676 | 11.12904 | 5280 ft | 204 kts | 282° |
| 2026-05-04 13:46 | 59.93234 | 11.10311 | 5059 ft | 203 kts | 300° |
| 2026-05-04 13:47 | 59.94160 | 11.08203 | 4838 ft | 201 kts | 311° |
| 2026-05-04 13:47 | 59.95135 | 11.06266 | 4628 ft | 198 kts | 310° |
| 2026-05-04 13:47 | 59.96100 | 11.04329 | 4466 ft | 194 kts | 310° |
| 2026-05-04 13:47 | 59.97032 | 11.02467 | 4382 ft | 184 kts | 311° |
| 2026-05-04 13:48 | 59.98095 | 11.01113 | 4306 ft | 183 kts | 332° |
| 2026-05-04 13:48 | 59.99364 | 11.00607 | 4173 ft | 191 kts | 354° |
| 2026-05-04 13:48 | 60.00689 | 11.01094 | 3970 ft | 195 kts | 10° |
| 2026-05-04 13:48 | 60.01996 | 11.01840 | 3873 ft | 197 kts | 9° |
| 2026-05-04 13:49 | 60.03299 | 11.02582 | 3651 ft | 196 kts | 10° |
| 2026-05-04 13:49 | 60.04611 | 11.03333 | 3402 ft | 195 kts | 10° |
| 2026-05-04 13:49 | 60.05916 | 11.04080 | 3141 ft | 195 kts | 9° |
| 2026-05-04 13:49 | 60.07221 | 11.04827 | 2878 ft | 194 kts | 10° |
| 2026-05-04 13:50 | 60.08514 | 11.05569 | 2611 ft | 191 kts | 10° |
| 2026-05-04 13:50 | 60.09747 | 11.06280 | 2360 ft | 179 kts | 9° |
| 2026-05-04 13:50 | 60.10898 | 11.06943 | 2124 ft | 166 kts | 9° |
| 2026-05-04 13:50 | 60.11980 | 11.07564 | 1900 ft | 156 kts | 9° |
| 2026-05-04 13:51 | 60.12992 | 11.08146 | 1683 ft | 147 kts | 9° |
| 2026-05-04 13:51 | 60.13957 | 11.08698 | 1489 ft | 145 kts | 10° |
| 2026-05-04 13:51 | 60.14913 | 11.09247 | 1282 ft | 141 kts | 6° |
| 2026-05-04 13:51 | 60.15855 | 11.09780 | 1067 ft | 141 kts | 9° |
| 2026-05-04 13:52 | 60.17716 | 11.10856 | 723 ft | 137 kts | 11° |
| 2026-05-04 13:52 | 60.18590 | 11.11355 | 680 ft | 120 kts | 14° |
| 2026-05-04 13:52 | 60.19230 | 11.11730 | 683 ft | 71 kts | 16° |
| 2026-05-04 13:53 | 60.19538 | 11.11885 | 683 ft | 24 kts | 4° |
| 2026-05-04 13:53 | 60.19667 | 11.11853 | 681 ft | 10 kts | 330° |
| 2026-05-04 13:53 | 60.19711 | 11.11704 | 682 ft | 15 kts | 289° |
| 2026-05-04 13:54 | 60.19660 | 11.11422 | 680 ft | 14 kts | 194° |
| 2026-05-04 13:54 | 60.19557 | 11.11365 | 682 ft | 17 kts | 196° |
| 2026-05-04 13:54 | 60.19423 | 11.11275 | 682 ft | 6 kts | 218° |
| 2026-05-04 13:55 | 60.19424 | 11.11189 | 680 ft | 8 kts | 288° |
| 2026-05-04 13:55 | 60.19450 | 11.11017 | 681 ft | 8 kts | 285° |
| 2026-05-04 13:55 | 60.19470 | 11.10876 | 682 ft | 13 kts | 286° |
| 2026-05-04 13:56 | 60.19498 | 11.10676 | 683 ft | 14 kts | 286° |
| 2026-05-04 13:56 | 60.19519 | 11.10530 | 683 ft | 13 kts | 286° |
| 2026-05-04 13:56 | 60.19538 | 11.10343 | 685 ft | 4 kts | 272° |
| 2026-05-04 13:57 | 60.19543 | 11.10294 | 685 ft | 4 kts | 286° |
| 2026-05-04 13:57 | 60.19551 | 11.10239 | 682 ft | 4 kts | 286° |
| 2026-05-04 13:58 | 60.19564 | 11.10150 | 685 ft | 0 kts | 286° |